Sigfox identifier Datetime Temperature Humidity SNR
003BAA42 2018-10-09 08:43:33 21.1 37 9.8
003BAA42 2018-10-09 07:37:43 21.1 37 9.9
003BAA42 2018-10-09 06:31:49 21.1 37 9.9
003BAA42 2018-10-09 05:25:57 21.1 37 9.7
003BAA42 2018-10-09 02:08:22 21.2 37 9.8
003BAA42 2018-10-08 22:50:37 21.3 36 10
003BAA42 2018-10-08 14:03:36 21 36 10.1
003BAA42 2018-10-08 11:51:50 20.8 36 9.9
003BAA42 2018-10-08 10:45:52 20.8 35 9.9
003BAA42 2018-10-08 07:28:17 20.8 35 9.8
003BAA42 2018-10-08 03:04:38 20.8 36 9.9
003BAA42 2018-10-08 01:58:41 20.8 37 9.9
003BAA42 2018-10-07 23:46:44 20.8 37 10
003BAA42 2018-10-07 21:34:59 20.9 38 10.2
003BAA42 2018-10-07 18:17:18 20.9 38 10.2
003BAA42 2018-10-07 17:11:20 20.9 38 10.2
003BAA42 2018-10-07 11:41:48 21 38 10
003BAA42 2018-10-07 08:24:12 21 39 10
003BAA42 2018-10-07 06:12:26 21 39 10
003BAA42 2018-10-07 05:06:36 21 39 10.1
003BAA42 2018-10-07 02:54:46 21 39 10
003BAA42 2018-10-07 00:43:09 21 40 10.1
003BAA42 2018-10-06 20:19:48 21.1 40 10.2
003BAA42 2018-10-06 18:08:07 21.2 40 10
003BAA42 2018-10-06 17:02:12 21.2 40 9.9
003BAA42 2018-10-06 15:56:19 21.2 40 9.9
003BAA42 2018-10-06 11:32:43 21.2 40 9.9
003BAA42 2018-10-06 10:26:51 21.2 40 9.9
003BAA42 2018-10-06 08:15:06 21.2 40 9.9
003BAA42 2018-10-06 06:03:23 21.2 41 10
003BAA42 2018-10-06 03:51:36 21.4 41 9.9
003BAA42 2018-10-05 22:22:17 21.4 42 9.7
003BAA42 2018-10-05 21:16:27 21.4 42 9.7
003BAA42 2018-10-05 20:10:33 21.5 42 9.7
003BAA42 2018-10-05 15:46:58 21.7 40 9.8
003BAA42 2018-10-05 14:41:04 21.7 39 9.6
003BAA42 2018-10-05 10:17:31 21 35 9.8
003BAA42 2018-10-05 06:59:51 20.8 33 9.8
003BAA42 2018-10-05 05:53:57 20.9 33 9.3
003BAA42 2018-10-05 04:48:02 20.9 33 8.9
003BAA42 2018-10-05 03:42:06 21 33 9.2
003BAA42 2018-10-05 02:36:07 21 33 9.5
003BAA42 2018-10-05 00:24:14 21.2 34 9.7
003BAA42 2018-10-04 22:12:17 21.2 34 10.1
003BAA42 2018-10-04 20:00:24 21.2 34 9.9
003BAA42 2018-10-04 17:48:35 21.3 35 11
003BAA42 2018-10-04 16:42:41 21.3 35 9
003BAA42 2018-10-04 15:36:44 21 40 0